Terminal Aerodrome Forecast
Issued by NWS

Home | Current Version | Previous Version | Graphics & Text | Print | Product List | Glossary On
Versions: 1 2 3 4 5 6 7 8 9 10 11 12 13 14 15 16 17 18 19
000
FTUS43 KFGF 221100
TAFBJI
TAF
KBJI 221138Z 2212/2312 16003KT P6SM OVC005
      TEMPO 2212/2215 4SM BR OVC015
     FM221500 32003KT 3SM BR OVC005
     FM221800 32006KT P6SM BKN012=

USA.gov is the U.S. government's official web portal to all federal, state and local government web resources and services.